sensor_id;sensor_type;location;lat;lon;timestamp;temperature;humidity
3628;DHT22;1830;49.000;12.074;2023-02-11T00:01:27;-2.30;99.90
3628;DHT22;1830;49.000;12.074;2023-02-11T00:03:54;-2.40;99.90
3628;DHT22;1830;49.000;12.074;2023-02-11T00:06:22;-2.50;99.90
3628;DHT22;1830;49.000;12.074;2023-02-11T00:08:49;-2.50;99.90
3628;DHT22;1830;49.000;12.074;2023-02-11T00:11:18;-2.70;99.90
3628;DHT22;1830;49.000;12.074;2023-02-11T00:13:47;-2.60;99.90
3628;DHT22;1830;49.000;12.074;2023-02-11T00:16:16;-2.60;99.90
3628;DHT22;1830;49.000;12.074;2023-02-11T00:18:43;-2.70;99.90
3628;DHT22;1830;49.000;12.074;2023-02-11T00:21:13;-2.70;99.90
3628;DHT22;1830;49.000;12.074;2023-02-11T00:23:40;-2.60;99.90
3628;DHT22;1830;49.000;12.074;2023-02-11T00:26:11;-2.40;99.90
3628;DHT22;1830;49.000;12.074;2023-02-11T00:28:38;-2.40;99.90
3628;DHT22;1830;49.000;12.074;2023-02-11T00:31:07;-2.50;99.90
3628;DHT22;1830;49.000;12.074;2023-02-11T00:33:34;-2.50;99.90
3628;DHT22;1830;49.000;12.074;2023-02-11T00:36:03;-2.60;99.90
3628;DHT22;1830;49.000;12.074;2023-02-11T00:38:30;-2.60;99.90
3628;DHT22;1830;49.000;12.074;2023-02-11T00:40:57;-2.60;99.90
3628;DHT22;1830;49.000;12.074;2023-02-11T00:43:24;-2.70;99.90
3628;DHT22;1830;49.000;12.074;2023-02-11T00:45:51;-2.70;99.90
3628;DHT22;1830;49.000;12.074;2023-02-11T00:48:19;-2.70;99.90
3628;DHT22;1830;49.000;12.074;2023-02-11T00:50:49;-2.70;99.90
3628;DHT22;1830;49.000;12.074;2023-02-11T00:53:16;-2.80;99.90
3628;DHT22;1830;49.000;12.074;2023-02-11T00:55:42;-2.90;99.90
3628;DHT22;1830;49.000;12.074;2023-02-11T00:58:09;-2.80;99.90
3628;DHT22;1830;49.000;12.074;2023-02-11T01:00:36;-2.70;99.90
3628;DHT22;1830;49.000;12.074;2023-02-11T01:03:03;-2.80;99.90
3628;DHT22;1830;49.000;12.074;2023-02-11T01:05:31;-2.70;99.90
3628;DHT22;1830;49.000;12.074;2023-02-11T01:07:58;-2.80;99.90
3628;DHT22;1830;49.000;12.074;2023-02-11T01:10:25;-2.90;99.90
3628;DHT22;1830;49.000;12.074;2023-02-11T01:12:53;-2.90;99.90
3628;DHT22;1830;49.000;12.074;2023-02-11T01:15:20;-2.90;99.90
3628;DHT22;1830;49.000;12.074;2023-02-11T01:17:47;-2.90;99.90
3628;DHT22;1830;49.000;12.074;2023-02-11T01:20:18;-2.90;99.90
3628;DHT22;1830;49.000;12.074;2023-02-11T01:22:46;-3.00;99.90
3628;DHT22;1830;49.000;12.074;2023-02-11T01:25:13;-3.10;99.90
3628;DHT22;1830;49.000;12.074;2023-02-11T01:27:40;-3.10;99.90
3628;DHT22;1830;49.000;12.074;2023-02-11T01:30:10;-3.10;99.90
3628;DHT22;1830;49.000;12.074;2023-02-11T01:32:37;-3.10;99.90
3628;DHT22;1830;49.000;12.074;2023-02-11T01:35:05;-3.00;99.90
3628;DHT22;1830;49.000;12.074;2023-02-11T01:37:32;-2.90;99.90
3628;DHT22;1830;49.000;12.074;2023-02-11T01:40:02;-2.80;99.90
3628;DHT22;1830;49.000;12.074;2023-02-11T01:42:31;-2.70;99.90
3628;DHT22;1830;49.000;12.074;2023-02-11T01:44:59;-2.70;99.90
3628;DHT22;1830;49.000;12.074;2023-02-11T01:47:27;-2.70;99.90
3628;DHT22;1830;49.000;12.074;2023-02-11T01:49:56;-2.80;99.90
3628;DHT22;1830;49.000;12.074;2023-02-11T01:52:26;-3.00;99.90
3628;DHT22;1830;49.000;12.074;2023-02-11T01:54:58;-3.20;99.90
3628;DHT22;1830;49.000;12.074;2023-02-11T01:58:01;-3.10;99.90
3628;DHT22;1830;49.000;12.074;2023-02-11T02:00:34;-2.90;99.90
3628;DHT22;1830;49.000;12.074;2023-02-11T02:03:05;-3.00;99.90
3628;DHT22;1830;49.000;12.074;2023-02-11T02:05:35;-2.90;99.90
3628;DHT22;1830;49.000;12.074;2023-02-11T02:08:08;-2.80;99.90
3628;DHT22;1830;49.000;12.074;2023-02-11T02:10:40;-2.80;99.90
3628;DHT22;1830;49.000;12.074;2023-02-11T02:13:09;-2.80;99.90
3628;DHT22;1830;49.000;12.074;2023-02-11T02:15:38;-2.80;99.90
3628;DHT22;1830;49.000;12.074;2023-02-11T02:18:16;-3.10;99.90
3628;DHT22;1830;49.000;12.074;2023-02-11T02:21:28;-3.10;99.90
3628;DHT22;1830;49.000;12.074;2023-02-11T02:24:46;-3.10;99.90
3628;DHT22;1830;49.000;12.074;2023-02-11T02:27:35;-3.00;99.90
3628;DHT22;1830;49.000;12.074;2023-02-11T02:30:38;-3.00;99.90
3628;DHT22;1830;49.000;12.074;2023-02-11T02:33:36;-2.90;99.90
3628;DHT22;1830;49.000;12.074;2023-02-11T02:36:13;-3.00;99.90
3628;DHT22;1830;49.000;12.074;2023-02-11T02:38:45;-3.00;99.90
3628;DHT22;1830;49.000;12.074;2023-02-11T02:41:16;-3.00;99.90
3628;DHT22;1830;49.000;12.074;2023-02-11T02:43:47;-3.00;99.90
3628;DHT22;1830;49.000;12.074;2023-02-11T02:46:16;-3.10;99.90
3628;DHT22;1830;49.000;12.074;2023-02-11T02:48:44;-3.10;99.90
3628;DHT22;1830;49.000;12.074;2023-02-11T02:51:25;-3.10;99.90
3628;DHT22;1830;49.000;12.074;2023-02-11T02:53:59;-3.20;99.90
3628;DHT22;1830;49.000;12.074;2023-02-11T02:56:36;-3.20;99.90
3628;DHT22;1830;49.000;12.074;2023-02-11T02:59:17;-3.20;99.90
3628;DHT22;1830;49.000;12.074;2023-02-11T03:01:52;-3.20;99.90
3628;DHT22;1830;49.000;12.074;2023-02-11T03:04:29;-3.20;99.90
3628;DHT22;1830;49.000;12.074;2023-02-11T03:07:02;-3.20;99.90
3628;DHT22;1830;49.000;12.074;2023-02-11T03:09:34;-3.10;99.90
3628;DHT22;1830;49.000;12.074;2023-02-11T03:12:04;-3.00;99.90
3628;DHT22;1830;49.000;12.074;2023-02-11T03:14:32;-3.00;99.90
3628;DHT22;1830;49.000;12.074;2023-02-11T03:17:03;-3.00;99.90
3628;DHT22;1830;49.000;12.074;2023-02-11T03:19:34;-2.90;99.90
3628;DHT22;1830;49.000;12.074;2023-02-11T03:22:07;-2.90;99.90
3628;DHT22;1830;49.000;12.074;2023-02-11T03:24:38;-2.90;99.90
3628;DHT22;1830;49.000;12.074;2023-02-11T03:27:09;-3.00;99.90
3628;DHT22;1830;49.000;12.074;2023-02-11T03:29:41;-2.80;99.90
3628;DHT22;1830;49.000;12.074;2023-02-11T03:32:13;-2.70;99.90
3628;DHT22;1830;49.000;12.074;2023-02-11T03:34:46;-2.60;99.90
3628;DHT22;1830;49.000;12.074;2023-02-11T03:37:17;-2.60;99.90
3628;DHT22;1830;49.000;12.074;2023-02-11T03:39:49;-2.60;99.90
3628;DHT22;1830;49.000;12.074;2023-02-11T03:42:17;-2.70;99.90
3628;DHT22;1830;49.000;12.074;2023-02-11T03:44:48;-2.70;99.90
3628;DHT22;1830;49.000;12.074;2023-02-11T03:47:18;-2.80;99.90
3628;DHT22;1830;49.000;12.074;2023-02-11T03:49:48;-2.70;99.90
3628;DHT22;1830;49.000;12.074;2023-02-11T03:52:17;-2.80;99.90
3628;DHT22;1830;49.000;12.074;2023-02-11T03:54:46;-2.70;99.90
3628;DHT22;1830;49.000;12.074;2023-02-11T03:57:14;-2.70;99.90
3628;DHT22;1830;49.000;12.074;2023-02-11T03:59:55;-2.70;99.90
3628;DHT22;1830;49.000;12.074;2023-02-11T04:02:24;-2.60;99.90
3628;DHT22;1830;49.000;12.074;2023-02-11T04:04:53;-2.60;99.90
3628;DHT22;1830;49.000;12.074;2023-02-11T04:07:20;-2.70;99.90
3628;DHT22;1830;49.000;12.074;2023-02-11T04:09:47;-2.60;99.90
3628;DHT22;1830;49.000;12.074;2023-02-11T04:12:14;-2.60;99.90
3628;DHT22;1830;49.000;12.074;2023-02-11T04:14:40;-2.50;99.90
3628;DHT22;1830;49.000;12.074;2023-02-11T04:17:07;-2.50;99.90
3628;DHT22;1830;49.000;12.074;2023-02-11T04:19:34;-2.50;99.90
3628;DHT22;1830;49.000;12.074;2023-02-11T04:22:03;-2.60;99.90
3628;DHT22;1830;49.000;12.074;2023-02-11T04:24:30;-2.60;99.90
3628;DHT22;1830;49.000;12.074;2023-02-11T04:26:57;-2.60;99.90
3628;DHT22;1830;49.000;12.074;2023-02-11T04:29:24;-2.50;99.90
3628;DHT22;1830;49.000;12.074;2023-02-11T04:31:51;-2.40;99.90
3628;DHT22;1830;49.000;12.074;2023-02-11T04:34:18;-2.40;99.90
3628;DHT22;1830;49.000;12.074;2023-02-11T04:36:44;-2.40;99.90
3628;DHT22;1830;49.000;12.074;2023-02-11T04:39:12;-2.40;99.90
3628;DHT22;1830;49.000;12.074;2023-02-11T04:41:39;-2.40;99.90
3628;DHT22;1830;49.000;12.074;2023-02-11T04:44:06;-2.50;99.90
3628;DHT22;1830;49.000;12.074;2023-02-11T04:46:34;-2.40;99.90
3628;DHT22;1830;49.000;12.074;2023-02-11T04:49:01;-2.40;99.90
3628;DHT22;1830;49.000;12.074;2023-02-11T04:51:27;-2.40;99.90
3628;DHT22;1830;49.000;12.074;2023-02-11T04:53:54;-2.40;99.90
3628;DHT22;1830;49.000;12.074;2023-02-11T04:56:22;-2.50;99.90
3628;DHT22;1830;49.000;12.074;2023-02-11T04:58:49;-2.50;99.90
3628;DHT22;1830;49.000;12.074;2023-02-11T05:01:16;-2.40;99.90
3628;DHT22;1830;49.000;12.074;2023-02-11T05:03:43;-2.30;99.90
3628;DHT22;1830;49.000;12.074;2023-02-11T05:06:10;-2.20;99.90
3628;DHT22;1830;49.000;12.074;2023-02-11T05:08:37;-2.20;99.90
3628;DHT22;1830;49.000;12.074;2023-02-11T05:11:04;-2.20;99.90
3628;DHT22;1830;49.000;12.074;2023-02-11T05:13:32;-2.20;99.90
3628;DHT22;1830;49.000;12.074;2023-02-11T05:15:59;-2.30;99.90
3628;DHT22;1830;49.000;12.074;2023-02-11T05:18:26;-2.40;99.90
3628;DHT22;1830;49.000;12.074;2023-02-11T05:20:53;-2.30;99.90
3628;DHT22;1830;49.000;12.074;2023-02-11T05:23:20;-2.20;99.90
3628;DHT22;1830;49.000;12.074;2023-02-11T05:25:46;-2.10;99.90
3628;DHT22;1830;49.000;12.074;2023-02-11T05:28:13;-2.10;99.90
3628;DHT22;1830;49.000;12.074;2023-02-11T05:30:41;-2.10;99.90
3628;DHT22;1830;49.000;12.074;2023-02-11T05:33:08;-2.20;99.90
3628;DHT22;1830;49.000;12.074;2023-02-11T05:35:35;-2.30;99.90
3628;DHT22;1830;49.000;12.074;2023-02-11T05:38:02;-2.30;99.90
3628;DHT22;1830;49.000;12.074;2023-02-11T05:40:28;-2.20;99.90
3628;DHT22;1830;49.000;12.074;2023-02-11T05:42:55;-2.10;99.90
3628;DHT22;1830;49.000;12.074;2023-02-11T05:45:22;-2.10;99.90
3628;DHT22;1830;49.000;12.074;2023-02-11T05:47:50;-2.10;99.90
3628;DHT22;1830;49.000;12.074;2023-02-11T05:50:17;-2.10;99.90
3628;DHT22;1830;49.000;12.074;2023-02-11T05:52:44;-2.10;99.90
3628;DHT22;1830;49.000;12.074;2023-02-11T05:55:10;-2.10;99.90
3628;DHT22;1830;49.000;12.074;2023-02-11T05:57:37;-2.10;99.90
3628;DHT22;1830;49.000;12.074;2023-02-11T06:00:05;-2.20;99.90
3628;DHT22;1830;49.000;12.074;2023-02-11T06:02:32;-2.30;99.90
3628;DHT22;1830;49.000;12.074;2023-02-11T06:05:00;-2.20;99.90
3628;DHT22;1830;49.000;12.074;2023-02-11T06:07:27;-2.20;99.90
3628;DHT22;1830;49.000;12.074;2023-02-11T06:09:54;-2.20;99.90
3628;DHT22;1830;49.000;12.074;2023-02-11T06:12:20;-2.30;99.90
3628;DHT22;1830;49.000;12.074;2023-02-11T06:14:47;-2.30;99.90
3628;DHT22;1830;49.000;12.074;2023-02-11T06:17:14;-2.30;99.90
3628;DHT22;1830;49.000;12.074;2023-02-11T06:19:41;-2.20;99.90
3628;DHT22;1830;49.000;12.074;2023-02-11T06:22:09;-2.10;99.90
3628;DHT22;1830;49.000;12.074;2023-02-11T06:24:36;-2.00;99.90
3628;DHT22;1830;49.000;12.074;2023-02-11T06:27:03;-2.00;99.90
3628;DHT22;1830;49.000;12.074;2023-02-11T06:29:30;-1.90;99.90
3628;DHT22;1830;49.000;12.074;2023-02-11T06:31:57;-1.80;99.90
3628;DHT22;1830;49.000;12.074;2023-02-11T06:34:24;-1.80;99.90
3628;DHT22;1830;49.000;12.074;2023-02-11T06:36:50;-1.70;99.90
3628;DHT22;1830;49.000;12.074;2023-02-11T06:39:24;-1.70;99.90
3628;DHT22;1830;49.000;12.074;2023-02-11T06:41:51;-1.60;99.90
3628;DHT22;1830;49.000;12.074;2023-02-11T06:44:18;-1.60;99.90
3628;DHT22;1830;49.000;12.074;2023-02-11T06:46:45;-1.60;99.90
3628;DHT22;1830;49.000;12.074;2023-02-11T06:49:12;-1.50;99.90
3628;DHT22;1830;49.000;12.074;2023-02-11T06:51:39;-1.40;99.90
3628;DHT22;1830;49.000;12.074;2023-02-11T06:54:06;-1.50;99.90
3628;DHT22;1830;49.000;12.074;2023-02-11T06:56:34;-1.60;99.90
3628;DHT22;1830;49.000;12.074;2023-02-11T06:59:01;-1.50;99.90
3628;DHT22;1830;49.000;12.074;2023-02-11T07:01:28;-1.50;99.90
3628;DHT22;1830;49.000;12.074;2023-02-11T07:03:54;-1.50;99.90
3628;DHT22;1830;49.000;12.074;2023-02-11T07:06:24;-1.60;99.90
3628;DHT22;1830;49.000;12.074;2023-02-11T07:08:54;-1.60;99.90
3628;DHT22;1830;49.000;12.074;2023-02-11T07:11:22;-1.60;99.90
3628;DHT22;1830;49.000;12.074;2023-02-11T07:13:54;-1.50;99.90
3628;DHT22;1830;49.000;12.074;2023-02-11T07:16:21;-1.50;99.90
3628;DHT22;1830;49.000;12.074;2023-02-11T07:18:48;-1.40;99.90
3628;DHT22;1830;49.000;12.074;2023-02-11T07:21:17;-1.40;99.90
3628;DHT22;1830;49.000;12.074;2023-02-11T07:23:45;-1.30;99.90
3628;DHT22;1830;49.000;12.074;2023-02-11T07:26:14;-1.30;99.90
3628;DHT22;1830;49.000;12.074;2023-02-11T07:28:41;-1.20;99.90
3628;DHT22;1830;49.000;12.074;2023-02-11T07:31:11;-1.20;99.90
3628;DHT22;1830;49.000;12.074;2023-02-11T07:33:39;-1.20;99.90
3628;DHT22;1830;49.000;12.074;2023-02-11T07:36:07;-1.20;99.90
3628;DHT22;1830;49.000;12.074;2023-02-11T07:38:36;-1.10;99.90
3628;DHT22;1830;49.000;12.074;2023-02-11T07:41:04;-1.10;99.90
3628;DHT22;1830;49.000;12.074;2023-02-11T07:43:31;-1.00;99.90
3628;DHT22;1830;49.000;12.074;2023-02-11T07:45:58;-0.90;99.90
3628;DHT22;1830;49.000;12.074;2023-02-11T07:48:26;-0.80;99.90
3628;DHT22;1830;49.000;12.074;2023-02-11T07:50:53;-0.80;99.90
3628;DHT22;1830;49.000;12.074;2023-02-11T07:53:20;-0.90;99.90
3628;DHT22;1830;49.000;12.074;2023-02-11T07:55:47;-1.00;99.90
3628;DHT22;1830;49.000;12.074;2023-02-11T07:58:13;-1.00;99.90
3628;DHT22;1830;49.000;12.074;2023-02-11T08:00:40;-0.80;99.90
3628;DHT22;1830;49.000;12.074;2023-02-11T08:03:07;-0.70;99.90
3628;DHT22;1830;49.000;12.074;2023-02-11T08:05:37;-0.60;99.90
3628;DHT22;1830;49.000;12.074;2023-02-11T08:08:04;-0.50;99.90
3628;DHT22;1830;49.000;12.074;2023-02-11T08:10:31;-0.50;99.90
3628;DHT22;1830;49.000;12.074;2023-02-11T08:12:58;-0.40;99.90
3628;DHT22;1830;49.000;12.074;2023-02-11T08:15:25;-0.40;99.90
3628;DHT22;1830;49.000;12.074;2023-02-11T08:17:51;-0.30;99.90
3628;DHT22;1830;49.000;12.074;2023-02-11T08:20:18;-0.20;99.90
3628;DHT22;1830;49.000;12.074;2023-02-11T08:22:46;-0.10;99.90
3628;DHT22;1830;49.000;12.074;2023-02-11T08:25:13;-0.10;99.90
3628;DHT22;1830;49.000;12.074;2023-02-11T08:27:40;-0.10;99.90
3628;DHT22;1830;49.000;12.074;2023-02-11T08:30:08;0.00;99.90
3628;DHT22;1830;49.000;12.074;2023-02-11T08:32:35;0.00;99.90
3628;DHT22;1830;49.000;12.074;2023-02-11T08:35:01;-0.10;99.90
3628;DHT22;1830;49.000;12.074;2023-02-11T08:37:28;-0.10;99.90
3628;DHT22;1830;49.000;12.074;2023-02-11T08:39:56;-0.10;99.90
3628;DHT22;1830;49.000;12.074;2023-02-11T08:42:23;-0.10;99.90
3628;DHT22;1830;49.000;12.074;2023-02-11T08:44:50;-0.10;99.90
3628;DHT22;1830;49.000;12.074;2023-02-11T08:47:17;-0.20;99.90
3628;DHT22;1830;49.000;12.074;2023-02-11T08:49:43;-0.10;99.90
3628;DHT22;1830;49.000;12.074;2023-02-11T08:52:10;0.00;99.90
3628;DHT22;1830;49.000;12.074;2023-02-11T08:54:37;0.20;99.90
3628;DHT22;1830;49.000;12.074;2023-02-11T08:57:05;0.40;99.90
3628;DHT22;1830;49.000;12.074;2023-02-11T08:59:32;0.50;99.90
3628;DHT22;1830;49.000;12.074;2023-02-11T09:01:59;0.40;99.90
3628;DHT22;1830;49.000;12.074;2023-02-11T09:04:26;0.40;99.90
3628;DHT22;1830;49.000;12.074;2023-02-11T09:06:52;0.40;99.90
3628;DHT22;1830;49.000;12.074;2023-02-11T09:09:19;0.50;99.90
3628;DHT22;1830;49.000;12.074;2023-02-11T09:11:46;0.60;99.90
3628;DHT22;1830;49.000;12.074;2023-02-11T09:14:18;0.60;99.90
3628;DHT22;1830;49.000;12.074;2023-02-11T09:16:44;0.60;99.90
3628;DHT22;1830;49.000;12.074;2023-02-11T09:19:11;0.70;99.90
3628;DHT22;1830;49.000;12.074;2023-02-11T09:21:38;0.70;99.90
3628;DHT22;1830;49.000;12.074;2023-02-11T09:24:05;0.70;99.90
3628;DHT22;1830;49.000;12.074;2023-02-11T09:26:34;0.70;99.90
3628;DHT22;1830;49.000;12.074;2023-02-11T09:29:02;0.70;99.90
3628;DHT22;1830;49.000;12.074;2023-02-11T09:31:32;0.60;99.90
3628;DHT22;1830;49.000;12.074;2023-02-11T09:34:00;0.50;99.90
3628;DHT22;1830;49.000;12.074;2023-02-11T09:36:31;0.50;99.90
3628;DHT22;1830;49.000;12.074;2023-02-11T09:38:59;0.50;99.90
3628;DHT22;1830;49.000;12.074;2023-02-11T09:41:38;0.40;99.90
3628;DHT22;1830;49.000;12.074;2023-02-11T09:44:09;0.50;99.90
3628;DHT22;1830;49.000;12.074;2023-02-11T09:46:49;0.50;99.90
3628;DHT22;1830;49.000;12.074;2023-02-11T09:49:21;0.60;99.90
3628;DHT22;1830;49.000;12.074;2023-02-11T09:51:52;0.70;99.90
3628;DHT22;1830;49.000;12.074;2023-02-11T09:54:27;0.80;99.90
3628;DHT22;1830;49.000;12.074;2023-02-11T09:56:55;0.80;99.90
3628;DHT22;1830;49.000;12.074;2023-02-11T09:59:22;0.90;99.90
3628;DHT22;1830;49.000;12.074;2023-02-11T10:01:56;1.00;99.90
3628;DHT22;1830;49.000;12.074;2023-02-11T10:04:37;0.90;99.90
3628;DHT22;1830;49.000;12.074;2023-02-11T10:07:18;0.90;99.90
3628;DHT22;1830;49.000;12.074;2023-02-11T10:09:56;0.90;99.90
3628;DHT22;1830;49.000;12.074;2023-02-11T10:12:43;0.90;99.90
3628;DHT22;1830;49.000;12.074;2023-02-11T10:15:19;0.90;99.90
3628;DHT22;1830;49.000;12.074;2023-02-11T10:18:01;1.00;99.90
3628;DHT22;1830;49.000;12.074;2023-02-11T10:20:33;1.10;99.90
3628;DHT22;1830;49.000;12.074;2023-02-11T10:23:09;1.20;99.90
3628;DHT22;1830;49.000;12.074;2023-02-11T10:25:41;1.30;99.90
3628;DHT22;1830;49.000;12.074;2023-02-11T10:28:12;1.30;99.90
3628;DHT22;1830;49.000;12.074;2023-02-11T10:30:42;1.40;99.90
3628;DHT22;1830;49.000;12.074;2023-02-11T10:33:14;1.50;99.90
3628;DHT22;1830;49.000;12.074;2023-02-11T10:35:44;1.50;99.90
3628;DHT22;1830;49.000;12.074;2023-02-11T10:38:11;1.60;99.90
3628;DHT22;1830;49.000;12.074;2023-02-11T10:40:38;1.70;99.90
3628;DHT22;1830;49.000;12.074;2023-02-11T10:43:09;1.70;99.90
3628;DHT22;1830;49.000;12.074;2023-02-11T10:45:38;1.70;99.90
3628;DHT22;1830;49.000;12.074;2023-02-11T10:48:42;1.60;99.90
3628;DHT22;1830;49.000;12.074;2023-02-11T10:51:18;1.50;99.90
3628;DHT22;1830;49.000;12.074;2023-02-11T10:53:46;1.70;99.90
3628;DHT22;1830;49.000;12.074;2023-02-11T10:56:20;1.70;99.90
3628;DHT22;1830;49.000;12.074;2023-02-11T10:58:55;1.70;99.90
3628;DHT22;1830;49.000;12.074;2023-02-11T11:01:37;1.80;99.90
3628;DHT22;1830;49.000;12.074;2023-02-11T11:04:05;1.80;99.90
3628;DHT22;1830;49.000;12.074;2023-02-11T11:06:46;1.90;99.90
3628;DHT22;1830;49.000;12.074;2023-02-11T11:09:26;2.00;99.90
3628;DHT22;1830;49.000;12.074;2023-02-11T11:11:54;2.00;99.90
3628;DHT22;1830;49.000;12.074;2023-02-11T11:14:22;2.10;99.90
3628;DHT22;1830;49.000;12.074;2023-02-11T11:16:54;2.10;99.90
3628;DHT22;1830;49.000;12.074;2023-02-11T11:19:23;2.30;99.90
3628;DHT22;1830;49.000;12.074;2023-02-11T11:21:51;2.30;99.90
3628;DHT22;1830;49.000;12.074;2023-02-11T11:24:20;2.20;99.90
3628;DHT22;1830;49.000;12.074;2023-02-11T11:26:49;2.10;99.90
3628;DHT22;1830;49.000;12.074;2023-02-11T11:29:18;2.20;99.90
3628;DHT22;1830;49.000;12.074;2023-02-11T11:31:49;2.20;99.90
3628;DHT22;1830;49.000;12.074;2023-02-11T11:34:22;2.40;99.90
3628;DHT22;1830;49.000;12.074;2023-02-11T11:36:52;2.40;99.90
3628;DHT22;1830;49.000;12.074;2023-02-11T11:39:23;2.40;99.90
3628;DHT22;1830;49.000;12.074;2023-02-11T11:41:55;2.40;99.90
3628;DHT22;1830;49.000;12.074;2023-02-11T11:44:29;2.40;99.90
3628;DHT22;1830;49.000;12.074;2023-02-11T11:47:24;2.50;99.90
3628;DHT22;1830;49.000;12.074;2023-02-11T11:50:15;2.50;99.90
3628;DHT22;1830;49.000;12.074;2023-02-11T11:52:51;2.50;99.90
3628;DHT22;1830;49.000;12.074;2023-02-11T11:55:21;2.50;99.90
3628;DHT22;1830;49.000;12.074;2023-02-11T11:57:48;2.50;99.90
3628;DHT22;1830;49.000;12.074;2023-02-11T12:00:18;2.50;99.90
3628;DHT22;1830;49.000;12.074;2023-02-11T12:03:26;2.40;99.90
3628;DHT22;1830;49.000;12.074;2023-02-11T12:06:11;2.50;99.90
3628;DHT22;1830;49.000;12.074;2023-02-11T12:08:43;2.70;99.90
3628;DHT22;1830;49.000;12.074;2023-02-11T12:11:22;2.80;99.90
3628;DHT22;1830;49.000;12.074;2023-02-11T12:13:59;2.90;99.90
3628;DHT22;1830;49.000;12.074;2023-02-11T12:16:35;2.90;99.90
3628;DHT22;1830;49.000;12.074;2023-02-11T12:19:37;2.90;99.90
3628;DHT22;1830;49.000;12.074;2023-02-11T12:22:24;2.80;99.90
3628;DHT22;1830;49.000;12.074;2023-02-11T12:27:47;2.90;99.90
3628;DHT22;1830;49.000;12.074;2023-02-11T12:30:22;3.00;99.90
3628;DHT22;1830;49.000;12.074;2023-02-11T12:32:58;3.10;99.90
3628;DHT22;1830;49.000;12.074;2023-02-11T12:35:39;3.20;99.90
3628;DHT22;1830;49.000;12.074;2023-02-11T12:38:31;3.40;99.90
3628;DHT22;1830;49.000;12.074;2023-02-11T12:41:13;3.60;99.90
3628;DHT22;1830;49.000;12.074;2023-02-11T12:43:43;3.80;99.90
3628;DHT22;1830;49.000;12.074;2023-02-11T12:46:28;3.90;99.90
3628;DHT22;1830;49.000;12.074;2023-02-11T12:49:24;4.00;99.90
3628;DHT22;1830;49.000;12.074;2023-02-11T12:52:07;4.20;99.90
3628;DHT22;1830;49.000;12.074;2023-02-11T12:54:40;4.20;99.90
3628;DHT22;1830;49.000;12.074;2023-02-11T12:57:14;4.10;99.90
3628;DHT22;1830;49.000;12.074;2023-02-11T12:59:48;4.00;99.90
3628;DHT22;1830;49.000;12.074;2023-02-11T13:02:23;4.00;99.90
3628;DHT22;1830;49.000;12.074;2023-02-11T13:04:55;3.80;99.90
3628;DHT22;1830;49.000;12.074;2023-02-11T13:07:28;3.70;99.90
3628;DHT22;1830;49.000;12.074;2023-02-11T13:10:00;3.60;99.90
3628;DHT22;1830;49.000;12.074;2023-02-11T13:12:31;3.50;99.90
3628;DHT22;1830;49.000;12.074;2023-02-11T13:15:17;3.50;99.90
3628;DHT22;1830;49.000;12.074;2023-02-11T13:17:53;3.40;99.90
3628;DHT22;1830;49.000;12.074;2023-02-11T13:20:31;3.40;99.90
3628;DHT22;1830;49.000;12.074;2023-02-11T13:23:06;3.30;99.90
3628;DHT22;1830;49.000;12.074;2023-02-11T13:25:41;3.30;99.90
3628;DHT22;1830;49.000;12.074;2023-02-11T13:28:19;3.40;99.90
3628;DHT22;1830;49.000;12.074;2023-02-11T13:30:49;3.30;99.90
3628;DHT22;1830;49.000;12.074;2023-02-11T13:33:31;3.30;99.90
3628;DHT22;1830;49.000;12.074;2023-02-11T13:36:16;3.30;99.90
3628;DHT22;1830;49.000;12.074;2023-02-11T13:38:52;3.20;99.90
3628;DHT22;1830;49.000;12.074;2023-02-11T13:41:23;3.20;99.90
3628;DHT22;1830;49.000;12.074;2023-02-11T13:44:26;3.10;99.90
3628;DHT22;1830;49.000;12.074;2023-02-11T13:46:56;3.00;99.90
3628;DHT22;1830;49.000;12.074;2023-02-11T13:49:28;2.90;99.90
3628;DHT22;1830;49.000;12.074;2023-02-11T13:51:57;2.90;99.90
3628;DHT22;1830;49.000;12.074;2023-02-11T13:54:28;2.80;99.90
3628;DHT22;1830;49.000;12.074;2023-02-11T13:57:37;2.90;99.90
3628;DHT22;1830;49.000;12.074;2023-02-11T14:00:45;2.90;99.90
3628;DHT22;1830;49.000;12.074;2023-02-11T14:03:25;2.90;99.90
3628;DHT22;1830;49.000;12.074;2023-02-11T14:06:19;2.90;99.90
3628;DHT22;1830;49.000;12.074;2023-02-11T14:11:51;2.90;99.90
3628;DHT22;1830;49.000;12.074;2023-02-11T14:14:24;2.90;99.90
3628;DHT22;1830;49.000;12.074;2023-02-11T14:17:25;2.80;99.90
3628;DHT22;1830;49.000;12.074;2023-02-11T14:19:53;2.80;99.90
3628;DHT22;1830;49.000;12.074;2023-02-11T14:22:24;2.90;99.90
3628;DHT22;1830;49.000;12.074;2023-02-11T14:24:54;2.90;99.90
3628;DHT22;1830;49.000;12.074;2023-02-11T14:27:26;2.90;99.90
3628;DHT22;1830;49.000;12.074;2023-02-11T14:36:01;3.10;99.90
3628;DHT22;1830;49.000;12.074;2023-02-11T14:38:39;3.20;99.90
3628;DHT22;1830;49.000;12.074;2023-02-11T14:41:18;3.30;99.90
3628;DHT22;1830;49.000;12.074;2023-02-11T14:43:48;3.20;99.90
3628;DHT22;1830;49.000;12.074;2023-02-11T14:46:20;3.30;99.90
3628;DHT22;1830;49.000;12.074;2023-02-11T14:48:49;3.40;99.90
3628;DHT22;1830;49.000;12.074;2023-02-11T14:51:19;3.40;99.90
3628;DHT22;1830;49.000;12.074;2023-02-11T14:53:49;3.40;99.90
3628;DHT22;1830;49.000;12.074;2023-02-11T14:56:20;3.40;99.90
3628;DHT22;1830;49.000;12.074;2023-02-11T14:58:47;3.40;99.90
3628;DHT22;1830;49.000;12.074;2023-02-11T15:01:26;3.30;99.90
3628;DHT22;1830;49.000;12.074;2023-02-11T15:03:53;3.20;99.90
3628;DHT22;1830;49.000;12.074;2023-02-11T15:06:23;3.20;99.90
3628;DHT22;1830;49.000;12.074;2023-02-11T15:08:52;3.20;99.90
3628;DHT22;1830;49.000;12.074;2023-02-11T15:11:20;3.10;99.90
3628;DHT22;1830;49.000;12.074;2023-02-11T15:13:49;3.10;99.90
3628;DHT22;1830;49.000;12.074;2023-02-11T15:16:19;3.10;99.90
3628;DHT22;1830;49.000;12.074;2023-02-11T15:18:50;3.10;99.90
3628;DHT22;1830;49.000;12.074;2023-02-11T15:21:19;3.00;99.90
3628;DHT22;1830;49.000;12.074;2023-02-11T15:23:55;3.00;99.90
3628;DHT22;1830;49.000;12.074;2023-02-11T15:26:22;3.10;99.90
3628;DHT22;1830;49.000;12.074;2023-02-11T15:28:48;3.10;99.90
3628;DHT22;1830;49.000;12.074;2023-02-11T15:31:18;3.10;99.90
3628;DHT22;1830;49.000;12.074;2023-02-11T15:33:46;3.10;99.90
3628;DHT22;1830;49.000;12.074;2023-02-11T15:36:15;3.10;99.90
3628;DHT22;1830;49.000;12.074;2023-02-11T15:38:43;3.20;99.90
3628;DHT22;1830;49.000;12.074;2023-02-11T15:41:32;3.10;99.90
3628;DHT22;1830;49.000;12.074;2023-02-11T15:43:59;3.10;99.90
3628;DHT22;1830;49.000;12.074;2023-02-11T15:46:33;3.10;99.90
3628;DHT22;1830;49.000;12.074;2023-02-11T15:49:02;3.10;99.90
3628;DHT22;1830;49.000;12.074;2023-02-11T15:51:32;3.10;99.90
3628;DHT22;1830;49.000;12.074;2023-02-11T15:54:01;3.00;99.90
3628;DHT22;1830;49.000;12.074;2023-02-11T15:56:33;3.10;99.90
3628;DHT22;1830;49.000;12.074;2023-02-11T15:59:10;3.10;99.90
3628;DHT22;1830;49.000;12.074;2023-02-11T16:01:40;3.10;99.90
3628;DHT22;1830;49.000;12.074;2023-02-11T16:04:15;3.10;99.90
3628;DHT22;1830;49.000;12.074;2023-02-11T16:06:43;3.00;99.90
3628;DHT22;1830;49.000;12.074;2023-02-11T16:09:25;3.00;99.90
3628;DHT22;1830;49.000;12.074;2023-02-11T16:11:57;3.10;99.90
3628;DHT22;1830;49.000;12.074;2023-02-11T16:14:29;3.10;99.90
3628;DHT22;1830;49.000;12.074;2023-02-11T16:16:59;3.10;99.90
3628;DHT22;1830;49.000;12.074;2023-02-11T16:19:27;3.10;99.90
3628;DHT22;1830;49.000;12.074;2023-02-11T16:21:57;3.10;99.90
3628;DHT22;1830;49.000;12.074;2023-02-11T16:24:26;3.10;99.90
3628;DHT22;1830;49.000;12.074;2023-02-11T16:26:55;3.10;99.90
3628;DHT22;1830;49.000;12.074;2023-02-11T16:29:25;3.10;99.90
3628;DHT22;1830;49.000;12.074;2023-02-11T16:31:53;3.00;99.90